createdAt,value
2019-05-02T00:00:32.032Z,69.09
2019-05-02T00:03:04.381Z,69.21
2019-05-02T00:05:32.121Z,69.32
2019-05-02T00:08:01.117Z,69.43
2019-05-02T00:10:30.738Z,69.48
2019-05-02T00:12:59.398Z,69.48
2019-05-02T00:15:27.927Z,69.27
2019-05-02T00:17:56.791Z,69.07
2019-05-02T00:20:27.199Z,69.18
2019-05-02T00:22:55.733Z,68.78
2019-05-02T00:25:24.208Z,68.76
2019-05-02T00:27:52.757Z,68.59
2019-05-02T00:30:21.912Z,68.75
2019-05-02T00:32:53.151Z,68.89
2019-05-02T00:35:20.625Z,69.06
2019-05-02T00:37:49.141Z,69.18
2019-05-02T00:40:20.297Z,69.17
2019-05-02T00:42:47.887Z,68.88
2019-05-02T00:45:18.805Z,68.85
2019-05-02T00:47:49.825Z,68.31
2019-05-02T00:50:18.701Z,68.06
2019-05-02T00:52:47.208Z,67.83
2019-05-02T00:55:15.692Z,67.82
2019-05-02T00:57:44.191Z,68.01
2019-05-02T01:00:18.382Z,68.09
2019-05-02T01:02:49.852Z,68.18
2019-05-02T01:05:18.336Z,68.09
2019-05-02T01:07:46.865Z,67.82
2019-05-02T01:10:17.359Z,67.98
2019-05-02T01:12:46.189Z,68.06
2019-05-02T01:15:15.250Z,68.12
2019-05-02T01:17:43.725Z,68.19
2019-05-02T01:20:12.361Z,68.12
2019-05-02T01:22:40.945Z,68.09
2019-05-02T01:25:15.313Z,67.96
2019-05-02T01:27:48.261Z,67.96
2019-05-02T01:30:24.382Z,67.04
2019-05-02T01:33:01.430Z,66.82
2019-05-02T01:35:31.568Z,66.88
2019-05-02T01:38:19.299Z,67.13
2019-05-02T01:40:53.113Z,67.33
2019-05-02T01:43:27.572Z,67.49
2019-05-02T01:45:56.016Z,67.56
2019-05-02T01:48:24.751Z,67.56
2019-05-02T01:50:53.350Z,67.57
2019-05-02T01:53:21.821Z,67.03
2019-05-02T01:55:51.910Z,66.77
2019-05-02T01:58:22.518Z,66.73
2019-05-02T02:00:50.717Z,66.47
2019-05-02T02:03:19.371Z,66.57
2019-05-02T02:05:47.967Z,66.63
2019-05-02T02:08:16.452Z,66.66
2019-05-02T02:10:44.944Z,66.66
2019-05-02T02:13:14.300Z,66.52
2019-05-02T02:15:42.788Z,66.60
2019-05-02T02:18:12.627Z,66.45
2019-05-02T02:20:59.191Z,66.50
2019-05-02T02:23:29.293Z,66.64
2019-05-02T02:25:59.392Z,66.41
2019-05-02T02:28:32.078Z,66.42
2019-05-02T02:31:04.668Z,66.36
2019-05-02T02:33:28.299Z,66.30
2019-05-02T02:35:56.796Z,66.46
2019-05-02T02:38:26.818Z,66.46
2019-05-02T02:40:55.533Z,66.41
2019-05-02T02:43:34.062Z,66.50
2019-05-02T02:46:12.258Z,66.54
2019-05-02T02:48:42.697Z,66.63
2019-05-02T02:51:22.142Z,66.75
2019-05-02T02:53:41.210Z,66.84
2019-05-02T02:56:09.947Z,66.88
2019-05-02T02:58:45.158Z,66.83
2019-05-02T03:01:08.679Z,66.90
2019-05-02T03:03:38.147Z,66.92
2019-05-02T03:06:08.308Z,66.97
2019-05-02T03:08:45.305Z,67.08
2019-05-02T03:11:07.472Z,67.20
2019-05-02T03:13:51.283Z,67.31
2019-05-02T03:16:24.602Z,67.35
2019-05-02T03:18:53.073Z,67.43
2019-05-02T03:21:22.519Z,67.51
2019-05-02T03:24:01.546Z,67.51
2019-05-02T03:26:21.575Z,67.56
2019-05-02T03:28:57.670Z,67.53
2019-05-02T03:31:24.897Z,67.58
2019-05-02T03:33:55.785Z,67.66
2019-05-02T03:36:29.669Z,67.69
2019-05-02T03:38:51.082Z,67.78
2019-05-02T03:41:20.753Z,67.88
2019-05-02T03:43:50.087Z,67.87
2019-05-02T03:46:20.615Z,67.88
2019-05-02T03:48:48.873Z,67.95
2019-05-02T03:51:21.675Z,67.91
2019-05-02T03:53:47.616Z,67.88
2019-05-02T03:56:16.258Z,67.95
2019-05-02T03:58:48.334Z,68.08
2019-05-02T04:01:15.512Z,68.16
2019-05-02T04:03:44.144Z,68.21
2019-05-02T04:06:20.292Z,68.26
2019-05-02T04:08:43.876Z,68.31
2019-05-02T04:11:15.524Z,68.19
2019-05-02T04:13:43.990Z,68.15
2019-05-02T04:16:15.511Z,68.21
2019-05-02T04:18:54.588Z,68.28
2019-05-02T04:21:13.498Z,68.38
2019-05-02T04:23:42.691Z,68.47
2019-05-02T04:26:12.812Z,68.53
2019-05-02T04:28:45.532Z,68.56
2019-05-02T04:31:11.673Z,68.58
2019-05-02T04:33:40.148Z,68.69
2019-05-02T04:36:15.206Z,68.80
2019-05-02T04:38:46.990Z,68.83
2019-05-02T04:41:09.521Z,68.91
2019-05-02T04:43:40.626Z,69.00
2019-05-02T04:46:17.514Z,69.07
2019-05-02T04:48:44.334Z,69.05
2019-05-02T04:51:15.957Z,69.08
2019-05-02T04:53:44.408Z,69.09
2019-05-02T04:56:10.627Z,69.11
2019-05-02T04:58:40.755Z,69.08
2019-05-02T05:01:10.078Z,69.04
2019-05-02T05:03:38.806Z,68.93
2019-05-02T05:06:11.917Z,68.84
2019-05-02T05:08:41.580Z,68.92
2019-05-02T05:11:08.945Z,68.97
2019-05-02T05:13:37.607Z,69.13
2019-05-02T05:16:08.624Z,69.18
2019-05-02T05:18:37.811Z,69.44
2019-05-02T05:21:10.338Z,69.54
2019-05-02T05:23:38.458Z,69.52
2019-05-02T05:26:07.400Z,69.57
2019-05-02T05:28:40.459Z,69.61
2019-05-02T05:31:07.661Z,69.61
2019-05-02T05:33:37.753Z,69.64
2019-05-02T05:36:08.156Z,69.75
2019-05-02T05:38:40.451Z,69.83
2019-05-02T05:41:09.025Z,69.92
2019-05-02T05:43:38.254Z,70.08
2019-05-02T05:46:10.728Z,70.13
2019-05-02T05:48:40.648Z,70.33
2019-05-02T05:51:07.470Z,70.50
2019-05-02T05:53:37.679Z,70.67
2019-05-02T05:56:07.955Z,70.69
2019-05-02T05:58:39.833Z,70.79
2019-05-02T06:01:09.535Z,70.84
2019-05-02T06:03:41.986Z,70.91
2019-05-02T06:06:08.233Z,71.03
2019-05-02T06:08:37.317Z,71.01
2019-05-02T06:11:05.880Z,70.94
2019-05-02T06:13:34.365Z,70.91
2019-05-02T06:16:03.460Z,70.79
2019-05-02T06:18:36.340Z,70.71
2019-05-02T06:21:03.442Z,70.68
2019-05-02T06:23:36.419Z,70.63
2019-05-02T06:26:08.031Z,70.55
2019-05-02T06:28:36.217Z,70.49
2019-05-02T06:31:07.292Z,70.31
2019-05-02T06:33:33.861Z,70.22
2019-05-02T06:36:02.591Z,70.26
2019-05-02T06:38:31.147Z,70.04
2019-05-02T06:40:59.606Z,69.74
2019-05-02T06:43:28.085Z,69.65
2019-05-02T06:45:56.606Z,69.16
2019-05-02T06:48:25.089Z,69.04
2019-05-02T06:50:53.572Z,68.98
2019-05-02T06:53:22.095Z,68.91
2019-05-02T06:55:50.587Z,68.70
2019-05-02T06:58:19.164Z,68.51
2019-05-02T07:00:57.448Z,68.58
2019-05-02T07:03:17.967Z,68.74
2019-05-02T07:05:49.074Z,68.34
2019-05-02T07:08:16.893Z,68.06
2019-05-02T07:10:45.381Z,67.92
2019-05-02T07:13:16.019Z,68.13
2019-05-02T07:15:57.890Z,68.15
2019-05-02T07:18:28.043Z,67.98
2019-05-02T07:20:56.523Z,67.80
2019-05-02T07:23:25.130Z,67.78
2019-05-02T07:25:53.623Z,67.88
2019-05-02T07:28:24.068Z,67.71
2019-05-02T07:30:54.631Z,67.65
2019-05-02T07:33:22.622Z,67.31
2019-05-02T07:35:55.180Z,67.25
2019-05-02T07:38:25.609Z,67.01
2019-05-02T07:40:53.128Z,67.17
2019-05-02T07:43:22.403Z,67.41
2019-05-02T07:45:51.103Z,67.58
2019-05-02T07:48:19.592Z,67.89
2019-05-02T07:50:48.278Z,68.13
2019-05-02T07:53:16.868Z,68.09
2019-05-02T07:55:45.349Z,68.12
2019-05-02T07:58:13.836Z,68.18
2019-05-02T08:00:42.369Z,68.19
2019-05-02T08:03:10.857Z,68.31
2019-05-02T08:05:39.327Z,68.43
2019-05-02T08:08:07.921Z,68.54
2019-05-02T08:10:36.480Z,68.43
2019-05-02T08:13:05.061Z,68.56
2019-05-02T08:15:33.886Z,68.40
2019-05-02T08:18:02.381Z,68.30
2019-05-02T08:20:30.869Z,68.00
2019-05-02T08:22:59.384Z,67.60
2019-05-02T08:25:27.866Z,67.45
2019-05-02T08:27:58.065Z,67.21
2019-05-02T08:30:28.410Z,67.29
2019-05-02T08:32:56.892Z,67.46
2019-05-02T08:35:28.096Z,67.02
2019-05-02T08:37:56.143Z,66.91
2019-05-02T08:40:24.914Z,65.91
2019-05-02T08:42:53.401Z,65.00
2019-05-02T08:45:22.003Z,65.09
2019-05-02T08:47:50.489Z,65.18
2019-05-02T08:50:19.142Z,65.21
2019-05-02T08:52:48.098Z,64.97
2019-05-02T08:55:16.906Z,64.58
2019-05-02T08:57:45.375Z,64.29
2019-05-02T09:00:14.429Z,63.67
2019-05-02T09:02:42.915Z,63.87
2019-05-02T09:05:11.463Z,63.37
2019-05-02T09:07:42.762Z,63.48
2019-05-02T09:10:10.803Z,63.40
2019-05-02T09:12:42.089Z,62.85
2019-05-02T09:15:11.813Z,62.94
2019-05-02T09:17:46.077Z,62.40
2019-05-02T09:20:18.701Z,62.36
2019-05-02T09:22:46.666Z,62.65
2019-05-02T09:25:12.818Z,62.56
2019-05-02T09:27:42.031Z,62.50
2019-05-02T09:30:17.027Z,62.51
2019-05-02T09:32:42.715Z,61.94
2019-05-02T09:35:11.822Z,61.74
2019-05-02T09:37:41.934Z,61.48
2019-05-02T09:40:12.607Z,61.06
2019-05-02T09:42:43.002Z,60.98
2019-05-02T09:45:16.311Z,60.88
2019-05-02T09:47:55.825Z,60.76
2019-05-02T09:50:20.580Z,60.24
2019-05-02T09:52:47.159Z,60.24
2019-05-02T09:55:16.661Z,60.17
2019-05-02T09:57:47.021Z,59.92
2019-05-02T10:00:35.752Z,59.93
2019-05-02T10:03:02.690Z,59.33
2019-05-02T10:05:32.209Z,59.33
2019-05-02T10:08:02.989Z,59.16
2019-05-02T10:10:32.347Z,59.37
2019-05-02T10:13:02.817Z,59.77
2019-05-02T10:15:32.678Z,60.01
2019-05-02T10:18:10.629Z,58.99
2019-05-02T10:20:36.180Z,59.00
2019-05-02T10:23:04.621Z,59.15
2019-05-02T10:25:38.696Z,58.84
2019-05-02T10:28:03.493Z,58.79
2019-05-02T10:30:36.000Z,58.88
2019-05-02T10:33:04.534Z,58.34
2019-05-02T10:35:40.415Z,58.41
2019-05-02T10:38:04.915Z,58.38
2019-05-02T10:40:33.437Z,58.22
2019-05-02T10:43:02.864Z,58.53
2019-05-02T10:45:32.082Z,58.83
2019-05-02T10:48:02.290Z,58.50
2019-05-02T10:50:32.967Z,58.47
2019-05-02T10:53:03.566Z,58.06
2019-05-02T10:55:33.257Z,58.22
2019-05-02T10:58:02.086Z,58.48
2019-05-02T11:00:32.545Z,57.82
2019-05-02T11:03:05.867Z,57.79
2019-05-02T11:05:37.400Z,58.06
2019-05-02T11:08:06.519Z,58.23
2019-05-02T11:10:35.130Z,58.10
2019-05-02T11:13:14.479Z,57.76
2019-05-02T11:15:52.507Z,57.87
2019-05-02T11:18:38.787Z,57.35
2019-05-02T11:20:53.294Z,57.01
2019-05-02T11:23:22.160Z,57.26
2019-05-02T11:25:52.644Z,57.29
2019-05-02T11:28:22.041Z,57.50
2019-05-02T11:30:52.487Z,57.50
2019-05-02T11:33:22.843Z,57.48
2019-05-02T11:35:53.479Z,57.63
2019-05-02T11:38:39.557Z,57.71
2019-05-02T11:40:52.149Z,57.94
2019-05-02T11:43:22.290Z,57.64
2019-05-02T11:45:54.397Z,57.60
2019-05-02T11:48:22.591Z,57.87
2019-05-02T11:50:52.309Z,57.73
2019-05-02T11:53:28.503Z,57.71
2019-05-02T11:55:53.198Z,58.25
2019-05-02T11:58:22.987Z,58.59
2019-05-02T12:00:52.280Z,58.60
2019-05-02T12:03:28.110Z,58.54
2019-05-02T12:05:55.692Z,58.60
2019-05-02T12:08:24.593Z,58.91
2019-05-02T12:10:53.085Z,59.35
2019-05-02T12:13:22.683Z,59.61
2019-05-02T12:15:51.998Z,59.80
2019-05-02T12:18:23.191Z,59.75
2019-05-02T12:20:51.951Z,59.70
2019-05-02T12:23:22.634Z,59.89
2019-05-02T12:25:52.036Z,59.98
2019-05-02T12:28:22.777Z,59.90
2019-05-02T12:30:51.886Z,59.77
2019-05-02T12:33:22.319Z,60.06
2019-05-02T12:35:52.448Z,60.45
2019-05-02T12:38:23.109Z,60.86
2019-05-02T12:40:52.037Z,61.09
2019-05-02T12:43:22.767Z,61.43
2019-05-02T12:45:52.850Z,61.52
2019-05-02T12:48:21.982Z,61.72
2019-05-02T12:50:52.781Z,61.84
2019-05-02T12:53:21.976Z,61.98
2019-05-02T12:55:52.568Z,61.90
2019-05-02T12:58:21.880Z,61.84
2019-05-02T13:00:52.839Z,62.13
2019-05-02T13:03:40.736Z,62.37
2019-05-02T13:06:09.284Z,62.69
2019-05-02T13:08:52.083Z,62.82
2019-05-02T13:11:24.486Z,63.21
2019-05-02T13:13:53.478Z,63.13
2019-05-02T13:16:22.644Z,63.35
2019-05-02T13:18:51.935Z,63.68
2019-05-02T13:21:23.499Z,64.00
2019-05-02T13:23:56.820Z,64.28
2019-05-02T13:26:27.225Z,64.46
2019-05-02T13:28:55.844Z,64.39
2019-05-02T13:31:25.993Z,64.42
2019-05-02T13:34:06.453Z,64.49
2019-05-02T13:36:42.507Z,64.76
2019-05-02T13:39:14.839Z,64.99
2019-05-02T13:41:43.408Z,65.34
2019-05-02T13:44:13.743Z,65.28
2019-05-02T13:46:42.336Z,65.44
2019-05-02T13:49:12.781Z,65.43
2019-05-02T13:51:42.630Z,65.50
2019-05-02T13:54:12.548Z,65.35
2019-05-02T13:56:45.042Z,65.44
2019-05-02T13:59:13.177Z,65.42
2019-05-02T14:01:42.364Z,65.59
2019-05-02T14:04:14.715Z,65.57
2019-05-02T14:06:42.127Z,65.55
2019-05-02T14:09:29.076Z,65.61
2019-05-02T14:11:59.234Z,65.48
2019-05-02T14:14:27.728Z,64.81
2019-05-02T14:16:56.224Z,64.35
2019-05-02T14:19:24.853Z,63.92
2019-05-02T14:21:53.513Z,63.34
2019-05-02T14:24:24.583Z,63.17
2019-05-02T14:26:53.178Z,63.07
2019-05-02T14:29:23.372Z,62.70
2019-05-02T14:31:52.065Z,62.68
2019-05-02T14:34:42.525Z,62.77
2019-05-02T14:37:14.161Z,62.95
2019-05-02T14:39:44.935Z,63.47
2019-05-02T14:42:21.300Z,63.63
2019-05-02T14:45:04.039Z,63.78
2019-05-02T14:47:17.739Z,63.97
2019-05-02T14:49:44.175Z,63.89
2019-05-02T14:52:12.781Z,63.88
2019-05-02T14:54:43.837Z,63.91
2019-05-02T14:57:17.137Z,63.87
2019-05-02T14:59:43.567Z,64.12
2019-05-02T15:02:14.098Z,64.56
2019-05-02T15:04:44.430Z,64.90
2019-05-02T15:07:13.095Z,65.04
2019-05-02T15:09:41.926Z,65.15
2019-05-02T15:12:15.872Z,65.22
2019-05-02T15:14:43.136Z,65.32
2019-05-02T15:17:12.085Z,65.25
2019-05-02T15:19:42.645Z,65.04
2019-05-02T15:22:12.437Z,64.76
2019-05-02T15:24:42.362Z,64.99
2019-05-02T15:27:17.113Z,65.08
2019-05-02T15:29:42.113Z,65.20
2019-05-02T15:32:12.750Z,65.28
2019-05-02T15:34:59.110Z,65.54
2019-05-02T15:37:29.404Z,65.62
2019-05-02T15:42:28.327Z,65.92
2019-05-02T15:45:01.857Z,66.24
2019-05-02T15:47:28.144Z,66.65
2019-05-02T15:49:56.622Z,66.89
2019-05-02T15:52:29.610Z,67.03
2019-05-02T15:55:01.211Z,67.29
2019-05-02T15:57:28.297Z,67.51
2019-05-02T15:59:56.872Z,67.75
2019-05-02T16:02:27.002Z,68.18
2019-05-02T16:04:57.114Z,68.32
2019-05-02T16:07:25.859Z,68.53
2019-05-02T16:09:59.450Z,68.82
2019-05-02T16:12:27.234Z,69.20
2019-05-02T16:14:54.832Z,69.64
2019-05-02T16:17:25.802Z,70.19
2019-05-02T16:19:58.661Z,70.48
2019-05-02T16:22:26.787Z,70.83
2019-05-02T16:24:56.719Z,70.98
2019-05-02T16:27:44.283Z,71.23
2019-05-02T16:30:17.218Z,71.41
2019-05-02T16:32:47.430Z,71.52
2019-05-02T16:35:17.660Z,71.65
2019-05-02T16:37:46.772Z,71.88
2019-05-02T16:40:22.235Z,71.93
2019-05-02T16:42:47.335Z,71.88
2019-05-02T16:45:16.523Z,71.71
2019-05-02T16:47:45.005Z,71.63
2019-05-02T16:50:14.251Z,71.57
2019-05-02T16:52:47.084Z,71.28
2019-05-02T16:55:20.568Z,71.15
2019-05-02T16:57:43.726Z,71.12
2019-05-02T17:00:15.689Z,70.96
2019-05-02T17:02:46.391Z,70.97
2019-05-02T17:05:14.655Z,70.87
2019-05-02T17:07:52.718Z,70.77
2019-05-02T17:10:35.019Z,70.62
2019-05-02T17:13:03.734Z,70.42
2019-05-02T17:15:35.323Z,70.32
2019-05-02T17:18:12.897Z,70.37
2019-05-02T17:20:35.193Z,70.31
2019-05-02T17:23:07.429Z,70.29
2019-05-02T17:25:34.105Z,70.65
2019-05-02T17:28:08.419Z,70.90
2019-05-02T17:30:38.547Z,70.87
2019-05-02T17:33:07.334Z,70.93
2019-05-02T17:35:34.624Z,71.10
2019-05-02T17:38:03.341Z,71.17
2019-05-02T17:40:32.260Z,71.19
2019-05-02T17:43:04.974Z,71.49
2019-05-02T17:45:33.374Z,71.58
2019-05-02T17:48:02.142Z,71.45
2019-05-02T17:50:42.225Z,71.58
2019-05-02T17:53:11.637Z,71.59
2019-05-02T17:55:42.667Z,71.60
2019-05-02T17:58:16.400Z,71.52
2019-05-02T18:00:43.137Z,71.51
2019-05-02T18:03:13.023Z,71.55
2019-05-02T18:05:42.027Z,71.77
2019-05-02T18:08:14.593Z,71.89
2019-05-02T18:10:41.925Z,71.99
2019-05-02T18:13:12.151Z,72.17
2019-05-02T18:15:41.704Z,72.44
2019-05-02T18:18:10.464Z,73.35
2019-05-02T18:20:42.723Z,74.05
2019-05-02T18:23:09.290Z,74.93
2019-05-02T18:25:37.762Z,75.70
2019-05-02T18:28:06.378Z,75.18
2019-05-02T18:30:35.757Z,73.02
2019-05-02T18:33:07.246Z,72.72
2019-05-02T18:35:37.449Z,72.49
2019-05-02T18:38:05.568Z,72.30
2019-05-02T18:40:34.052Z,72.33
2019-05-02T18:43:05.250Z,73.12
2019-05-02T18:45:32.843Z,73.06
2019-05-02T18:48:06.555Z,73.52
2019-05-02T18:50:41.322Z,73.61
2019-05-02T18:53:08.701Z,73.24
2019-05-02T18:55:38.618Z,73.41
2019-05-02T18:58:07.415Z,73.12
2019-05-02T19:00:39.528Z,73.15
2019-05-02T19:03:13.275Z,73.24
2019-05-02T19:05:38.437Z,73.58
2019-05-02T19:08:07.158Z,74.16
2019-05-02T19:10:37.149Z,74.40
2019-05-02T19:13:06.332Z,74.76
2019-05-02T19:15:39.510Z,74.48
2019-05-02T19:18:05.317Z,74.75
2019-05-02T19:20:57.537Z,74.84
2019-05-02T19:23:25.271Z,74.91
2019-05-02T19:25:53.802Z,75.22
2019-05-02T19:28:38.407Z,75.50
2019-05-02T19:31:07.039Z,75.64
2019-05-02T19:33:37.356Z,75.68
2019-05-02T19:36:07.558Z,75.60
2019-05-02T19:38:36.027Z,75.58
2019-05-02T19:41:08.706Z,75.68
2019-05-02T19:43:35.121Z,75.99
2019-05-02T19:46:04.253Z,76.13
2019-05-02T19:48:36.943Z,76.15
2019-05-02T19:51:03.114Z,76.11
2019-05-02T19:53:32.485Z,76.15
2019-05-02T19:56:02.947Z,76.11
2019-05-02T19:58:36.623Z,76.13
2019-05-02T20:01:02.882Z,75.94
2019-05-02T20:03:32.357Z,75.93
2019-05-02T20:06:02.482Z,75.92
2019-05-02T20:08:32.629Z,76.07
2019-05-02T20:11:02.133Z,75.99
2019-05-02T20:13:32.714Z,75.81
2019-05-02T20:16:05.928Z,75.97
2019-05-02T20:18:42.550Z,75.94
2019-05-02T20:21:06.592Z,75.84
2019-05-02T20:23:35.715Z,75.81
2019-05-02T20:26:09.395Z,75.75
2019-05-02T20:28:35.865Z,75.90
2019-05-02T20:31:04.499Z,75.95
2019-05-02T20:33:33.110Z,75.91
2019-05-02T20:36:01.955Z,75.83
2019-05-02T20:38:32.445Z,75.81
2019-05-02T20:41:02.919Z,75.67
2019-05-02T20:43:32.259Z,75.43
2019-05-02T20:46:02.567Z,75.36
2019-05-02T20:48:32.234Z,75.15
2019-05-02T20:51:02.685Z,75.03
2019-05-02T20:53:33.942Z,74.90
2019-05-02T20:56:01.907Z,74.88
2019-05-02T20:58:32.462Z,74.72
2019-05-02T21:01:07.807Z,74.63
2019-05-02T21:03:32.081Z,74.81
2019-05-02T21:06:12.252Z,74.99
2019-05-02T21:08:55.065Z,75.00
2019-05-02T21:11:27.441Z,74.85
2019-05-02T21:13:56.114Z,74.80
2019-05-02T21:16:24.575Z,74.71
2019-05-02T21:18:53.078Z,74.53
2019-05-02T21:21:22.093Z,74.36
2019-05-02T21:23:52.813Z,74.21
2019-05-02T21:26:23.849Z,74.27
2019-05-02T21:28:54.101Z,74.12
2019-05-02T21:31:25.439Z,73.90
2019-05-02T21:33:55.952Z,73.57
2019-05-02T21:36:24.446Z,73.18
2019-05-02T21:38:52.941Z,72.65
2019-05-02T21:41:26.462Z,72.56
2019-05-02T21:43:54.924Z,72.01
2019-05-02T21:46:25.778Z,70.20
2019-05-02T21:48:55.951Z,69.43
2019-05-02T21:51:32.255Z,69.40
2019-05-02T21:54:06.717Z,69.46
2019-05-02T21:56:40.027Z,69.76
2019-05-02T21:59:11.899Z,70.30
2019-05-02T22:01:52.153Z,70.53
2019-05-02T22:04:22.533Z,70.84
2019-05-02T22:06:52.169Z,71.31
2019-05-02T22:09:22.857Z,71.68
2019-05-02T22:11:52.052Z,72.13
2019-05-02T22:14:22.265Z,72.59
2019-05-02T22:16:52.892Z,72.95
2019-05-02T22:19:21.376Z,72.89
2019-05-02T22:21:49.848Z,72.72
2019-05-02T22:24:18.375Z,72.72
2019-05-02T22:26:46.850Z,72.81
2019-05-02T22:29:15.333Z,73.13
2019-05-02T22:31:43.920Z,73.44
2019-05-02T22:34:13.014Z,73.83
2019-05-02T22:36:42.214Z,74.12
2019-05-02T22:39:15.903Z,74.41
2019-05-02T22:41:44.375Z,74.67
2019-05-02T22:44:14.038Z,74.86
2019-05-02T22:46:43.962Z,74.90
2019-05-02T22:49:15.078Z,75.02
2019-05-02T22:51:44.332Z,75.06
2019-05-02T22:54:24.265Z,75.17
2019-05-02T22:56:43.576Z,74.98
2019-05-02T22:59:12.058Z,73.90
2019-05-02T23:01:42.167Z,73.85
2019-05-02T23:04:12.745Z,73.34
2019-05-02T23:06:43.863Z,72.68
2019-05-02T23:09:12.660Z,72.30
2019-05-02T23:11:42.673Z,71.81
2019-05-02T23:14:11.457Z,71.23
2019-05-02T23:16:42.302Z,70.94
2019-05-02T23:19:12.003Z,70.77
2019-05-02T23:21:42.247Z,70.93
2019-05-02T23:24:14.630Z,71.16
2019-05-02T23:26:53.079Z,71.75
2019-05-02T23:29:22.657Z,72.33
2019-05-02T23:31:51.820Z,72.93
2019-05-02T23:34:23.369Z,73.43
2019-05-02T23:36:52.272Z,73.58
2019-05-02T23:39:20.945Z,73.60
2019-05-02T23:41:49.410Z,73.57
2019-05-02T23:44:17.968Z,73.36
2019-05-02T23:46:47.457Z,72.96
2019-05-02T23:49:17.752Z,72.68
2019-05-02T23:51:46.257Z,72.57
2019-05-02T23:54:14.747Z,72.46
2019-05-02T23:56:43.351Z,72.01
2019-05-02T23:59:12.086Z,71.83
